sensor_id;sensor_type;location;lat;lon;timestamp;P1;durP1;ratioP1;P2;durP2;ratioP2
34805;SDS011;65084;42.196;25.326;2024-01-25T00:01:50;59.38;;;29.58;;
34805;SDS011;65084;42.196;25.326;2024-01-25T00:04:18;50.90;;;27.88;;
34805;SDS011;65084;42.196;25.326;2024-01-25T00:06:46;70.75;;;30.20;;
34805;SDS011;65084;42.196;25.326;2024-01-25T00:09:13;81.28;;;38.42;;
34805;SDS011;65084;42.196;25.326;2024-01-25T00:11:40;78.15;;;38.05;;
34805;SDS011;65084;42.196;25.326;2024-01-25T00:14:07;75.30;;;38.83;;
34805;SDS011;65084;42.196;25.326;2024-01-25T00:16:35;72.80;;;34.08;;
34805;SDS011;65084;42.196;25.326;2024-01-25T00:19:02;64.97;;;34.88;;
34805;SDS011;65084;42.196;25.326;2024-01-25T00:21:31;78.65;;;36.78;;
34805;SDS011;65084;42.196;25.326;2024-01-25T00:23:58;78.25;;;38.05;;
34805;SDS011;65084;42.196;25.326;2024-01-25T00:26:25;75.82;;;37.00;;
34805;SDS011;65084;42.196;25.326;2024-01-25T00:28:53;76.85;;;37.15;;
34805;SDS011;65084;42.196;25.326;2024-01-25T00:31:20;63.85;;;30.92;;
34805;SDS011;65084;42.196;25.326;2024-01-25T00:33:47;53.80;;;27.80;;
34805;SDS011;65084;42.196;25.326;2024-01-25T00:36:15;52.10;;;26.27;;
34805;SDS011;65084;42.196;25.326;2024-01-25T00:38:44;36.50;;;20.13;;
34805;SDS011;65084;42.196;25.326;2024-01-25T00:41:11;41.90;;;19.42;;
34805;SDS011;65084;42.196;25.326;2024-01-25T00:43:43;34.47;;;17.30;;
34805;SDS011;65084;42.196;25.326;2024-01-25T00:46:10;33.67;;;16.48;;
34805;SDS011;65084;42.196;25.326;2024-01-25T00:48:38;24.77;;;15.40;;
34805;SDS011;65084;42.196;25.326;2024-01-25T00:51:06;24.67;;;14.48;;
34805;SDS011;65084;42.196;25.326;2024-01-25T00:53:34;28.15;;;13.70;;
34805;SDS011;65084;42.196;25.326;2024-01-25T00:56:03;27.05;;;13.85;;
34805;SDS011;65084;42.196;25.326;2024-01-25T00:58:31;30.80;;;15.32;;
34805;SDS011;65084;42.196;25.326;2024-01-25T01:00:59;24.00;;;14.57;;
34805;SDS011;65084;42.196;25.326;2024-01-25T01:03:26;36.38;;;14.27;;
34805;SDS011;65084;42.196;25.326;2024-01-25T01:05:54;21.30;;;13.32;;
34805;SDS011;65084;42.196;25.326;2024-01-25T01:08:22;28.85;;;15.85;;
34805;SDS011;65084;42.196;25.326;2024-01-25T01:10:50;27.17;;;15.98;;
34805;SDS011;65084;42.196;25.326;2024-01-25T01:13:19;26.75;;;15.98;;
34805;SDS011;65084;42.196;25.326;2024-01-25T01:15:46;28.58;;;15.10;;
34805;SDS011;65084;42.196;25.326;2024-01-25T01:18:14;24.15;;;14.90;;
34805;SDS011;65084;42.196;25.326;2024-01-25T01:20:41;24.80;;;14.95;;
34805;SDS011;65084;42.196;25.326;2024-01-25T01:23:08;32.35;;;15.02;;
34805;SDS011;65084;42.196;25.326;2024-01-25T01:25:35;23.83;;;15.38;;
34805;SDS011;65084;42.196;25.326;2024-01-25T01:28:03;27.90;;;16.45;;
34805;SDS011;65084;42.196;25.326;2024-01-25T01:30:32;25.70;;;16.25;;
34805;SDS011;65084;42.196;25.326;2024-01-25T01:32:59;25.20;;;14.40;;
34805;SDS011;65084;42.196;25.326;2024-01-25T01:35:26;25.15;;;15.93;;
34805;SDS011;65084;42.196;25.326;2024-01-25T01:37:53;30.05;;;15.45;;
34805;SDS011;65084;42.196;25.326;2024-01-25T01:40:21;24.25;;;14.02;;
34805;SDS011;65084;42.196;25.326;2024-01-25T01:42:48;28.98;;;15.55;;
34805;SDS011;65084;42.196;25.326;2024-01-25T01:45:15;32.55;;;15.95;;
34805;SDS011;65084;42.196;25.326;2024-01-25T01:47:44;24.50;;;14.93;;
34805;SDS011;65084;42.196;25.326;2024-01-25T01:50:11;26.65;;;14.68;;
34805;SDS011;65084;42.196;25.326;2024-01-25T01:52:38;25.30;;;13.85;;
34805;SDS011;65084;42.196;25.326;2024-01-25T01:55:07;31.40;;;15.27;;
34805;SDS011;65084;42.196;25.326;2024-01-25T01:57:34;32.17;;;16.05;;
34805;SDS011;65084;42.196;25.326;2024-01-25T02:00:02;29.65;;;15.85;;
34805;SDS011;65084;42.196;25.326;2024-01-25T02:02:30;33.90;;;14.98;;
34805;SDS011;65084;42.196;25.326;2024-01-25T02:04:59;35.28;;;17.80;;
34805;SDS011;65084;42.196;25.326;2024-01-25T02:07:26;35.67;;;18.25;;
34805;SDS011;65084;42.196;25.326;2024-01-25T02:09:54;32.50;;;16.83;;
34805;SDS011;65084;42.196;25.326;2024-01-25T02:12:21;31.05;;;17.90;;
34805;SDS011;65084;42.196;25.326;2024-01-25T02:14:48;31.60;;;17.25;;
34805;SDS011;65084;42.196;25.326;2024-01-25T02:17:15;26.88;;;15.63;;
34805;SDS011;65084;42.196;25.326;2024-01-25T02:19:43;27.83;;;16.40;;
34805;SDS011;65084;42.196;25.326;2024-01-25T02:24:45;31.10;;;18.23;;
34805;SDS011;65084;42.196;25.326;2024-01-25T02:27:12;32.05;;;16.77;;
34805;SDS011;65084;42.196;25.326;2024-01-25T02:29:39;24.38;;;15.13;;
34805;SDS011;65084;42.196;25.326;2024-01-25T02:32:07;29.25;;;16.50;;
34805;SDS011;65084;42.196;25.326;2024-01-25T02:34:34;28.33;;;16.67;;
34805;SDS011;65084;42.196;25.326;2024-01-25T02:37:01;29.02;;;16.67;;
34805;SDS011;65084;42.196;25.326;2024-01-25T02:39:29;27.20;;;16.00;;
34805;SDS011;65084;42.196;25.326;2024-01-25T02:41:57;25.67;;;15.52;;
34805;SDS011;65084;42.196;25.326;2024-01-25T02:44:25;25.40;;;15.95;;
34805;SDS011;65084;42.196;25.326;2024-01-25T02:46:52;29.25;;;15.85;;
34805;SDS011;65084;42.196;25.326;2024-01-25T02:49:19;24.65;;;14.93;;
34805;SDS011;65084;42.196;25.326;2024-01-25T02:51:48;28.88;;;15.63;;
34805;SDS011;65084;42.196;25.326;2024-01-25T02:54:15;31.92;;;16.02;;
34805;SDS011;65084;42.196;25.326;2024-01-25T02:56:43;34.33;;;18.20;;
34805;SDS011;65084;42.196;25.326;2024-01-25T02:59:12;31.20;;;17.25;;
34805;SDS011;65084;42.196;25.326;2024-01-25T03:01:40;30.92;;;16.67;;
34805;SDS011;65084;42.196;25.326;2024-01-25T03:04:08;29.45;;;16.45;;
34805;SDS011;65084;42.196;25.326;2024-01-25T03:06:35;36.50;;;17.13;;
34805;SDS011;65084;42.196;25.326;2024-01-25T03:09:02;25.67;;;16.48;;
34805;SDS011;65084;42.196;25.326;2024-01-25T03:11:30;26.83;;;16.38;;
34805;SDS011;65084;42.196;25.326;2024-01-25T03:13:58;31.42;;;16.55;;
34805;SDS011;65084;42.196;25.326;2024-01-25T03:16:27;31.77;;;16.40;;
34805;SDS011;65084;42.196;25.326;2024-01-25T03:18:54;28.20;;;15.63;;
34805;SDS011;65084;42.196;25.326;2024-01-25T03:21:21;22.63;;;14.35;;
34805;SDS011;65084;42.196;25.326;2024-01-25T03:23:49;24.25;;;13.98;;
34805;SDS011;65084;42.196;25.326;2024-01-25T03:26:16;23.05;;;13.82;;
34805;SDS011;65084;42.196;25.326;2024-01-25T03:28:43;29.92;;;14.90;;
34805;SDS011;65084;42.196;25.326;2024-01-25T03:31:11;25.40;;;14.60;;
34805;SDS011;65084;42.196;25.326;2024-01-25T03:33:39;29.70;;;14.77;;
34805;SDS011;65084;42.196;25.326;2024-01-25T03:36:07;24.55;;;15.23;;
34805;SDS011;65084;42.196;25.326;2024-01-25T03:38:34;26.48;;;14.35;;
34805;SDS011;65084;42.196;25.326;2024-01-25T03:41:02;24.40;;;14.35;;
34805;SDS011;65084;42.196;25.326;2024-01-25T03:43:29;24.63;;;14.02;;
34805;SDS011;65084;42.196;25.326;2024-01-25T03:45:56;25.02;;;14.50;;
34805;SDS011;65084;42.196;25.326;2024-01-25T03:48:23;23.63;;;14.30;;
34805;SDS011;65084;42.196;25.326;2024-01-25T03:50:52;22.08;;;13.90;;
34805;SDS011;65084;42.196;25.326;2024-01-25T03:53:21;24.92;;;15.02;;
34805;SDS011;65084;42.196;25.326;2024-01-25T03:55:48;25.10;;;15.00;;
34805;SDS011;65084;42.196;25.326;2024-01-25T03:58:16;26.00;;;15.95;;
34805;SDS011;65084;42.196;25.326;2024-01-25T04:00:44;27.30;;;14.70;;
34805;SDS011;65084;42.196;25.326;2024-01-25T04:03:11;30.13;;;17.33;;
34805;SDS011;65084;42.196;25.326;2024-01-25T04:05:39;26.95;;;15.45;;
34805;SDS011;65084;42.196;25.326;2024-01-25T04:08:07;31.05;;;16.42;;
34805;SDS011;65084;42.196;25.326;2024-01-25T04:10:35;36.38;;;19.33;;
34805;SDS011;65084;42.196;25.326;2024-01-25T04:13:02;33.70;;;18.13;;
34805;SDS011;65084;42.196;25.326;2024-01-25T04:15:31;37.92;;;17.85;;
34805;SDS011;65084;42.196;25.326;2024-01-25T04:17:59;29.42;;;16.33;;
34805;SDS011;65084;42.196;25.326;2024-01-25T04:20:26;29.55;;;17.27;;
34805;SDS011;65084;42.196;25.326;2024-01-25T04:22:53;32.42;;;18.23;;
34805;SDS011;65084;42.196;25.326;2024-01-25T04:25:22;32.95;;;17.67;;
34805;SDS011;65084;42.196;25.326;2024-01-25T04:27:49;24.52;;;14.27;;
34805;SDS011;65084;42.196;25.326;2024-01-25T04:30:16;31.48;;;14.13;;
34805;SDS011;65084;42.196;25.326;2024-01-25T04:32:44;26.00;;;13.25;;
34805;SDS011;65084;42.196;25.326;2024-01-25T04:35:11;19.38;;;11.63;;
34805;SDS011;65084;42.196;25.326;2024-01-25T04:37:39;18.25;;;9.02;;
34805;SDS011;65084;42.196;25.326;2024-01-25T04:40:07;14.98;;;8.48;;
34805;SDS011;65084;42.196;25.326;2024-01-25T04:42:36;14.57;;;8.70;;
34805;SDS011;65084;42.196;25.326;2024-01-25T04:45:04;11.30;;;7.10;;
34805;SDS011;65084;42.196;25.326;2024-01-25T04:47:32;12.95;;;8.07;;
34805;SDS011;65084;42.196;25.326;2024-01-25T04:49:59;9.32;;;5.50;;
34805;SDS011;65084;42.196;25.326;2024-01-25T04:52:26;8.02;;;5.22;;
34805;SDS011;65084;42.196;25.326;2024-01-25T04:54:53;12.10;;;5.50;;
34805;SDS011;65084;42.196;25.326;2024-01-25T04:57:21;11.00;;;7.38;;
34805;SDS011;65084;42.196;25.326;2024-01-25T04:59:49;9.88;;;5.65;;
34805;SDS011;65084;42.196;25.326;2024-01-25T05:02:17;9.50;;;5.57;;
34805;SDS011;65084;42.196;25.326;2024-01-25T05:04:44;7.47;;;4.28;;
34805;SDS011;65084;42.196;25.326;2024-01-25T05:07:11;15.07;;;6.00;;
34805;SDS011;65084;42.196;25.326;2024-01-25T05:09:38;18.45;;;10.60;;
34805;SDS011;65084;42.196;25.326;2024-01-25T05:12:06;20.38;;;11.40;;
34805;SDS011;65084;42.196;25.326;2024-01-25T05:14:33;22.98;;;10.73;;
34805;SDS011;65084;42.196;25.326;2024-01-25T05:17:02;24.98;;;13.10;;
34805;SDS011;65084;42.196;25.326;2024-01-25T05:19:29;23.55;;;12.38;;
34805;SDS011;65084;42.196;25.326;2024-01-25T05:21:56;51.17;;;19.10;;
34805;SDS011;65084;42.196;25.326;2024-01-25T05:24:24;61.40;;;30.10;;
34805;SDS011;65084;42.196;25.326;2024-01-25T05:26:51;45.95;;;21.75;;
34805;SDS011;65084;42.196;25.326;2024-01-25T05:29:18;46.63;;;20.52;;
34805;SDS011;65084;42.196;25.326;2024-01-25T05:31:45;42.95;;;17.50;;
34805;SDS011;65084;42.196;25.326;2024-01-25T05:34:15;35.55;;;18.10;;
34805;SDS011;65084;42.196;25.326;2024-01-25T05:36:42;25.33;;;15.93;;
34805;SDS011;65084;42.196;25.326;2024-01-25T05:39:09;22.80;;;11.40;;
34805;SDS011;65084;42.196;25.326;2024-01-25T05:41:38;14.80;;;8.00;;
34805;SDS011;65084;42.196;25.326;2024-01-25T05:44:05;15.82;;;7.80;;
34805;SDS011;65084;42.196;25.326;2024-01-25T05:46:32;17.20;;;9.55;;
34805;SDS011;65084;42.196;25.326;2024-01-25T05:49:00;14.32;;;10.07;;
34805;SDS011;65084;42.196;25.326;2024-01-25T05:51:28;20.80;;;10.65;;
34805;SDS011;65084;42.196;25.326;2024-01-25T05:53:56;23.30;;;11.23;;
34805;SDS011;65084;42.196;25.326;2024-01-25T05:56:23;18.17;;;9.73;;
34805;SDS011;65084;42.196;25.326;2024-01-25T05:58:50;17.15;;;10.77;;
34805;SDS011;65084;42.196;25.326;2024-01-25T06:01:18;18.35;;;12.02;;
34805;SDS011;65084;42.196;25.326;2024-01-25T06:03:45;26.70;;;14.50;;
34805;SDS011;65084;42.196;25.326;2024-01-25T06:06:12;30.10;;;15.65;;
34805;SDS011;65084;42.196;25.326;2024-01-25T06:08:41;27.80;;;14.60;;
34805;SDS011;65084;42.196;25.326;2024-01-25T06:11:08;24.42;;;13.85;;
34805;SDS011;65084;42.196;25.326;2024-01-25T06:13:36;21.58;;;11.43;;
34805;SDS011;65084;42.196;25.326;2024-01-25T06:16:03;17.75;;;9.57;;
34805;SDS011;65084;42.196;25.326;2024-01-25T06:18:31;9.02;;;5.57;;
34805;SDS011;65084;42.196;25.326;2024-01-25T06:20:58;7.25;;;3.58;;
34805;SDS011;65084;42.196;25.326;2024-01-25T06:23:25;4.70;;;3.67;;
34805;SDS011;65084;42.196;25.326;2024-01-25T06:25:54;13.27;;;6.75;;
34805;SDS011;65084;42.196;25.326;2024-01-25T06:28:21;20.40;;;8.75;;
34805;SDS011;65084;42.196;25.326;2024-01-25T06:30:49;12.60;;;7.63;;
34805;SDS011;65084;42.196;25.326;2024-01-25T06:33:17;15.63;;;7.30;;
34805;SDS011;65084;42.196;25.326;2024-01-25T06:35:44;32.70;;;14.65;;
34805;SDS011;65084;42.196;25.326;2024-01-25T06:38:12;39.00;;;17.45;;
34805;SDS011;65084;42.196;25.326;2024-01-25T06:40:39;22.13;;;11.25;;
34805;SDS011;65084;42.196;25.326;2024-01-25T06:43:07;22.00;;;8.70;;
34805;SDS011;65084;42.196;25.326;2024-01-25T06:45:36;7.57;;;4.85;;
34805;SDS011;65084;42.196;25.326;2024-01-25T06:48:05;31.25;;;16.67;;
34805;SDS011;65084;42.196;25.326;2024-01-25T06:50:33;47.65;;;21.42;;
34805;SDS011;65084;42.196;25.326;2024-01-25T06:53:01;49.95;;;21.35;;
34805;SDS011;65084;42.196;25.326;2024-01-25T06:55:28;19.00;;;9.93;;
34805;SDS011;65084;42.196;25.326;2024-01-25T06:57:55;16.98;;;7.88;;
34805;SDS011;65084;42.196;25.326;2024-01-25T07:00:24;18.95;;;8.63;;
34805;SDS011;65084;42.196;25.326;2024-01-25T07:02:51;17.92;;;10.50;;
34805;SDS011;65084;42.196;25.326;2024-01-25T07:05:19;18.38;;;9.73;;
34805;SDS011;65084;42.196;25.326;2024-01-25T07:07:46;11.18;;;6.63;;
34805;SDS011;65084;42.196;25.326;2024-01-25T07:10:13;7.20;;;4.65;;
34805;SDS011;65084;42.196;25.326;2024-01-25T07:12:41;7.68;;;4.00;;
34805;SDS011;65084;42.196;25.326;2024-01-25T07:15:08;6.03;;;3.67;;
34805;SDS011;65084;42.196;25.326;2024-01-25T07:17:37;8.57;;;6.10;;
34805;SDS011;65084;42.196;25.326;2024-01-25T07:20:04;4.15;;;3.33;;
34805;SDS011;65084;42.196;25.326;2024-01-25T07:22:32;2.53;;;2.13;;
34805;SDS011;65084;42.196;25.326;2024-01-25T07:25:00;4.22;;;2.22;;
34805;SDS011;65084;42.196;25.326;2024-01-25T07:27:27;4.82;;;1.70;;
34805;SDS011;65084;42.196;25.326;2024-01-25T07:29:54;2.53;;;2.33;;
34805;SDS011;65084;42.196;25.326;2024-01-25T07:32:22;3.80;;;1.88;;
34805;SDS011;65084;42.196;25.326;2024-01-25T07:34:51;2.50;;;2.30;;
34805;SDS011;65084;42.196;25.326;2024-01-25T07:37:19;4.60;;;3.60;;
34805;SDS011;65084;42.196;25.326;2024-01-25T07:39:46;4.82;;;2.90;;
34805;SDS011;65084;42.196;25.326;2024-01-25T07:42:13;4.82;;;2.85;;
34805;SDS011;65084;42.196;25.326;2024-01-25T07:44:40;2.63;;;2.40;;
34805;SDS011;65084;42.196;25.326;2024-01-25T07:47:08;4.03;;;2.63;;
34805;SDS011;65084;42.196;25.326;2024-01-25T07:49:35;6.35;;;3.53;;
34805;SDS011;65084;42.196;25.326;2024-01-25T07:52:04;6.57;;;3.75;;
34805;SDS011;65084;42.196;25.326;2024-01-25T07:54:31;7.18;;;2.95;;
34805;SDS011;65084;42.196;25.326;2024-01-25T07:56:58;6.55;;;3.28;;
34805;SDS011;65084;42.196;25.326;2024-01-25T07:59:26;5.72;;;3.58;;
34805;SDS011;65084;42.196;25.326;2024-01-25T08:01:53;8.35;;;2.80;;
34805;SDS011;65084;42.196;25.326;2024-01-25T08:04:20;5.68;;;3.35;;
34805;SDS011;65084;42.196;25.326;2024-01-25T08:06:48;4.65;;;3.45;;
34805;SDS011;65084;42.196;25.326;2024-01-25T08:09:16;5.88;;;3.00;;
34805;SDS011;65084;42.196;25.326;2024-01-25T08:11:44;7.00;;;2.80;;
34805;SDS011;65084;42.196;25.326;2024-01-25T08:14:11;4.22;;;2.28;;
34805;SDS011;65084;42.196;25.326;2024-01-25T08:16:38;6.30;;;3.10;;
34805;SDS011;65084;42.196;25.326;2024-01-25T08:19:06;7.82;;;2.58;;
34805;SDS011;65084;42.196;25.326;2024-01-25T08:21:33;10.68;;;3.30;;
34805;SDS011;65084;42.196;25.326;2024-01-25T08:24:01;6.32;;;3.05;;
34805;SDS011;65084;42.196;25.326;2024-01-25T08:26:30;6.60;;;2.67;;
34805;SDS011;65084;42.196;25.326;2024-01-25T08:28:58;10.80;;;4.30;;
34805;SDS011;65084;42.196;25.326;2024-01-25T08:31:25;12.00;;;4.30;;
34805;SDS011;65084;42.196;25.326;2024-01-25T08:33:52;12.73;;;3.05;;
34805;SDS011;65084;42.196;25.326;2024-01-25T08:36:20;4.20;;;2.78;;
34805;SDS011;65084;42.196;25.326;2024-01-25T08:38:47;5.93;;;2.90;;
34805;SDS011;65084;42.196;25.326;2024-01-25T08:41:15;7.13;;;2.22;;
34805;SDS011;65084;42.196;25.326;2024-01-25T08:43:43;10.95;;;3.15;;
34805;SDS011;65084;42.196;25.326;2024-01-25T08:46:12;5.47;;;2.67;;
34805;SDS011;65084;42.196;25.326;2024-01-25T08:48:43;2.90;;;2.35;;
34805;SDS011;65084;42.196;25.326;2024-01-25T08:51:10;5.93;;;1.90;;
34805;SDS011;65084;42.196;25.326;2024-01-25T08:53:38;4.70;;;2.45;;
34805;SDS011;65084;42.196;25.326;2024-01-25T08:56:05;8.02;;;2.20;;
34805;SDS011;65084;42.196;25.326;2024-01-25T08:58:33;4.15;;;2.38;;
34805;SDS011;65084;42.196;25.326;2024-01-25T09:01:01;7.28;;;2.42;;
34805;SDS011;65084;42.196;25.326;2024-01-25T09:03:29;3.83;;;2.78;;
34805;SDS011;65084;42.196;25.326;2024-01-25T09:05:56;4.82;;;2.65;;
34805;SDS011;65084;42.196;25.326;2024-01-25T09:08:23;4.88;;;3.00;;
34805;SDS011;65084;42.196;25.326;2024-01-25T09:10:50;5.18;;;2.90;;
34805;SDS011;65084;42.196;25.326;2024-01-25T09:13:18;14.80;;;2.85;;
34805;SDS011;65084;42.196;25.326;2024-01-25T09:15:45;7.00;;;2.78;;
34805;SDS011;65084;42.196;25.326;2024-01-25T09:18:14;5.20;;;2.33;;
34805;SDS011;65084;42.196;25.326;2024-01-25T09:20:41;9.45;;;3.25;;
34805;SDS011;65084;42.196;25.326;2024-01-25T09:23:12;10.63;;;3.13;;
34805;SDS011;65084;42.196;25.326;2024-01-25T09:25:40;9.50;;;2.90;;
34805;SDS011;65084;42.196;25.326;2024-01-25T09:28:07;9.55;;;2.05;;
34805;SDS011;65084;42.196;25.326;2024-01-25T09:30:37;9.43;;;2.75;;
34805;SDS011;65084;42.196;25.326;2024-01-25T09:33:04;7.43;;;2.53;;
34805;SDS011;65084;42.196;25.326;2024-01-25T09:35:33;12.88;;;2.50;;
34805;SDS011;65084;42.196;25.326;2024-01-25T09:38:00;6.88;;;2.58;;
34805;SDS011;65084;42.196;25.326;2024-01-25T09:40:27;8.75;;;2.88;;
34805;SDS011;65084;42.196;25.326;2024-01-25T09:42:55;7.53;;;2.70;;
34805;SDS011;65084;42.196;25.326;2024-01-25T09:45:22;7.40;;;2.70;;
34805;SDS011;65084;42.196;25.326;2024-01-25T09:47:51;5.88;;;2.30;;
34805;SDS011;65084;42.196;25.326;2024-01-25T09:50:18;8.98;;;2.25;;
34805;SDS011;65084;42.196;25.326;2024-01-25T09:52:49;5.28;;;2.75;;
34805;SDS011;65084;42.196;25.326;2024-01-25T09:55:17;7.97;;;3.00;;
34805;SDS011;65084;42.196;25.326;2024-01-25T09:57:46;15.05;;;3.28;;
34805;SDS011;65084;42.196;25.326;2024-01-25T10:00:16;23.30;;;2.22;;
34805;SDS011;65084;42.196;25.326;2024-01-25T10:02:47;7.03;;;2.35;;
34805;SDS011;65084;42.196;25.326;2024-01-25T10:05:14;7.60;;;2.42;;
34805;SDS011;65084;42.196;25.326;2024-01-25T10:07:43;8.82;;;2.05;;
34805;SDS011;65084;42.196;25.326;2024-01-25T10:10:12;9.52;;;3.22;;
34805;SDS011;65084;42.196;25.326;2024-01-25T10:12:40;18.45;;;2.70;;
34805;SDS011;65084;42.196;25.326;2024-01-25T10:15:08;11.02;;;2.75;;
34805;SDS011;65084;42.196;25.326;2024-01-25T10:17:35;4.53;;;2.75;;
34805;SDS011;65084;42.196;25.326;2024-01-25T10:20:04;7.05;;;2.53;;
34805;SDS011;65084;42.196;25.326;2024-01-25T10:22:36;9.80;;;2.88;;
34805;SDS011;65084;42.196;25.326;2024-01-25T10:25:04;18.25;;;3.75;;
34805;SDS011;65084;42.196;25.326;2024-01-25T10:27:33;6.35;;;3.03;;
34805;SDS011;65084;42.196;25.326;2024-01-25T10:30:01;4.00;;;2.70;;
34805;SDS011;65084;42.196;25.326;2024-01-25T10:32:29;10.48;;;3.10;;
34805;SDS011;65084;42.196;25.326;2024-01-25T10:34:57;25.30;;;3.75;;
34805;SDS011;65084;42.196;25.326;2024-01-25T10:37:25;6.05;;;2.30;;
34805;SDS011;65084;42.196;25.326;2024-01-25T10:39:54;9.95;;;2.05;;
34805;SDS011;65084;42.196;25.326;2024-01-25T10:42:21;8.27;;;2.17;;
34805;SDS011;65084;42.196;25.326;2024-01-25T10:44:50;3.78;;;1.80;;
34805;SDS011;65084;42.196;25.326;2024-01-25T10:47:17;7.70;;;2.45;;
34805;SDS011;65084;42.196;25.326;2024-01-25T10:49:46;4.45;;;2.33;;
34805;SDS011;65084;42.196;25.326;2024-01-25T10:52:14;4.32;;;2.50;;
34805;SDS011;65084;42.196;25.326;2024-01-25T10:54:42;10.40;;;2.63;;
34805;SDS011;65084;42.196;25.326;2024-01-25T10:57:09;9.90;;;3.30;;
34805;SDS011;65084;42.196;25.326;2024-01-25T10:59:36;4.22;;;2.47;;
34805;SDS011;65084;42.196;25.326;2024-01-25T11:02:04;3.60;;;2.75;;
34805;SDS011;65084;42.196;25.326;2024-01-25T11:04:32;5.45;;;2.58;;
34805;SDS011;65084;42.196;25.326;2024-01-25T11:07:04;6.22;;;2.38;;
34805;SDS011;65084;42.196;25.326;2024-01-25T11:09:33;11.95;;;2.80;;
34805;SDS011;65084;42.196;25.326;2024-01-25T11:12:10;7.32;;;2.38;;
34805;SDS011;65084;42.196;25.326;2024-01-25T11:14:38;8.02;;;2.72;;
34805;SDS011;65084;42.196;25.326;2024-01-25T11:17:16;5.10;;;2.25;;
34805;SDS011;65084;42.196;25.326;2024-01-25T11:19:45;8.23;;;3.15;;
34805;SDS011;65084;42.196;25.326;2024-01-25T11:22:13;9.18;;;2.65;;
34805;SDS011;65084;42.196;25.326;2024-01-25T11:24:40;6.13;;;2.95;;
34805;SDS011;65084;42.196;25.326;2024-01-25T11:27:08;8.15;;;2.15;;
34805;SDS011;65084;42.196;25.326;2024-01-25T11:29:36;9.50;;;2.50;;
34805;SDS011;65084;42.196;25.326;2024-01-25T11:32:05;8.15;;;2.22;;
34805;SDS011;65084;42.196;25.326;2024-01-25T11:34:34;8.43;;;3.30;;
34805;SDS011;65084;42.196;25.326;2024-01-25T11:37:01;7.63;;;2.80;;
34805;SDS011;65084;42.196;25.326;2024-01-25T11:39:28;8.18;;;2.58;;
34805;SDS011;65084;42.196;25.326;2024-01-25T11:41:56;7.47;;;2.67;;
34805;SDS011;65084;42.196;25.326;2024-01-25T11:44:23;7.10;;;3.10;;
34805;SDS011;65084;42.196;25.326;2024-01-25T11:46:50;6.22;;;2.90;;
34805;SDS011;65084;42.196;25.326;2024-01-25T11:49:17;8.68;;;3.42;;
34805;SDS011;65084;42.196;25.326;2024-01-25T11:51:46;8.75;;;2.72;;
34805;SDS011;65084;42.196;25.326;2024-01-25T11:54:13;7.78;;;2.42;;
34805;SDS011;65084;42.196;25.326;2024-01-25T11:56:41;11.65;;;3.17;;
34805;SDS011;65084;42.196;25.326;2024-01-25T11:59:08;5.18;;;2.40;;
34805;SDS011;65084;42.196;25.326;2024-01-25T12:01:36;9.77;;;2.40;;
34805;SDS011;65084;42.196;25.326;2024-01-25T12:04:04;7.30;;;2.90;;
34805;SDS011;65084;42.196;25.326;2024-01-25T12:06:32;5.45;;;2.28;;
34805;SDS011;65084;42.196;25.326;2024-01-25T12:09:08;6.85;;;1.88;;
34805;SDS011;65084;42.196;25.326;2024-01-25T12:11:36;3.05;;;2.13;;
34805;SDS011;65084;42.196;25.326;2024-01-25T12:14:03;5.13;;;1.80;;
34805;SDS011;65084;42.196;25.326;2024-01-25T12:16:30;13.27;;;2.97;;
34805;SDS011;65084;42.196;25.326;2024-01-25T12:18:58;4.10;;;2.03;;
34805;SDS011;65084;42.196;25.326;2024-01-25T12:21:25;7.25;;;2.15;;
34805;SDS011;65084;42.196;25.326;2024-01-25T12:23:52;4.20;;;2.05;;
34805;SDS011;65084;42.196;25.326;2024-01-25T12:26:21;4.88;;;1.90;;
34805;SDS011;65084;42.196;25.326;2024-01-25T12:28:48;13.10;;;2.00;;
34805;SDS011;65084;42.196;25.326;2024-01-25T12:31:16;4.63;;;2.15;;
34805;SDS011;65084;42.196;25.326;2024-01-25T12:33:43;4.90;;;2.30;;
34805;SDS011;65084;42.196;25.326;2024-01-25T12:36:10;12.13;;;2.20;;
34805;SDS011;65084;42.196;25.326;2024-01-25T12:38:38;6.85;;;2.45;;
34805;SDS011;65084;42.196;25.326;2024-01-25T12:41:05;5.82;;;2.20;;
34805;SDS011;65084;42.196;25.326;2024-01-25T12:43:34;7.32;;;2.60;;
34805;SDS011;65084;42.196;25.326;2024-01-25T12:46:01;6.88;;;2.80;;
34805;SDS011;65084;42.196;25.326;2024-01-25T12:48:29;8.45;;;3.20;;
34805;SDS011;65084;42.196;25.326;2024-01-25T12:50:56;11.40;;;3.75;;
34805;SDS011;65084;42.196;25.326;2024-01-25T12:53:23;7.97;;;3.20;;
34805;SDS011;65084;42.196;25.326;2024-01-25T12:55:51;6.82;;;3.08;;
34805;SDS011;65084;42.196;25.326;2024-01-25T12:58:18;5.45;;;2.75;;
34805;SDS011;65084;42.196;25.326;2024-01-25T13:00:47;7.25;;;3.20;;
34805;SDS011;65084;42.196;25.326;2024-01-25T13:03:14;10.13;;;3.03;;
34805;SDS011;65084;42.196;25.326;2024-01-25T13:05:41;9.52;;;3.42;;
34805;SDS011;65084;42.196;25.326;2024-01-25T13:08:09;5.30;;;2.65;;
34805;SDS011;65084;42.196;25.326;2024-01-25T13:10:36;18.65;;;3.15;;
34805;SDS011;65084;42.196;25.326;2024-01-25T13:13:03;6.97;;;2.65;;
34805;SDS011;65084;42.196;25.326;2024-01-25T13:15:31;9.63;;;2.78;;
34805;SDS011;65084;42.196;25.326;2024-01-25T13:18:00;5.20;;;2.90;;
34805;SDS011;65084;42.196;25.326;2024-01-25T13:20:27;8.02;;;3.00;;
34805;SDS011;65084;42.196;25.326;2024-01-25T13:22:54;9.57;;;2.90;;
34805;SDS011;65084;42.196;25.326;2024-01-25T13:25:21;10.10;;;2.70;;
34805;SDS011;65084;42.196;25.326;2024-01-25T13:27:49;7.28;;;3.00;;
34805;SDS011;65084;42.196;25.326;2024-01-25T13:30:16;8.10;;;3.17;;
34805;SDS011;65084;42.196;25.326;2024-01-25T13:32:44;8.13;;;2.85;;
34805;SDS011;65084;42.196;25.326;2024-01-25T13:35:12;9.25;;;2.40;;
34805;SDS011;65084;42.196;25.326;2024-01-25T13:37:40;8.43;;;2.45;;
34805;SDS011;65084;42.196;25.326;2024-01-25T13:40:07;6.63;;;3.08;;
34805;SDS011;65084;42.196;25.326;2024-01-25T13:42:35;7.97;;;3.22;;
34805;SDS011;65084;42.196;25.326;2024-01-25T13:45:02;5.72;;;2.60;;
34805;SDS011;65084;42.196;25.326;2024-01-25T13:47:30;9.23;;;4.15;;
34805;SDS011;65084;42.196;25.326;2024-01-25T13:49:57;12.02;;;3.40;;
34805;SDS011;65084;42.196;25.326;2024-01-25T13:52:25;5.78;;;3.10;;
34805;SDS011;65084;42.196;25.326;2024-01-25T13:54:53;7.07;;;3.40;;
34805;SDS011;65084;42.196;25.326;2024-01-25T13:57:20;11.10;;;3.35;;
34805;SDS011;65084;42.196;25.326;2024-01-25T13:59:52;7.20;;;3.53;;
34805;SDS011;65084;42.196;25.326;2024-01-25T14:02:19;9.05;;;3.58;;
34805;SDS011;65084;42.196;25.326;2024-01-25T14:04:46;7.63;;;2.70;;
34805;SDS011;65084;42.196;25.326;2024-01-25T14:07:15;9.20;;;3.38;;
34805;SDS011;65084;42.196;25.326;2024-01-25T14:09:44;5.70;;;2.95;;
34805;SDS011;65084;42.196;25.326;2024-01-25T14:12:11;15.18;;;3.13;;
34805;SDS011;65084;42.196;25.326;2024-01-25T14:14:38;7.80;;;2.85;;
34805;SDS011;65084;42.196;25.326;2024-01-25T14:17:06;8.65;;;2.88;;
34805;SDS011;65084;42.196;25.326;2024-01-25T14:19:33;14.02;;;3.00;;
34805;SDS011;65084;42.196;25.326;2024-01-25T14:22:00;7.22;;;3.25;;
34805;SDS011;65084;42.196;25.326;2024-01-25T14:24:28;11.32;;;3.40;;
34805;SDS011;65084;42.196;25.326;2024-01-25T14:26:56;11.43;;;3.97;;